»·PEaware :: N312MA KCMA-KSNA

N312MA :: KCMA-KSNA

FLIGHT INFORMATION

Flight Status: Arrived
Operator: Privately registered:
United States
More flights under this callsign
Pilot: Chris M. (26752)
Aircraft: CESSNA 172 SKYHAWK
(C172)
More flights by this aircraft type
Origin: KCMA Camarillo
United States
Destination: KSNA John Wayne-Orange Co
United States
More flights between these airports :: More routes between these airports
Route: +Q COASTAL ROUTE
File this flight plan on PilotEdge
Remarks: cat 10
Altitude:
(Current/Filed)
0ft
Speed:
(Current/Filed)
0kts
Departed: 26-Nov-19 08:01 PM
Arrived: 26-Nov-19 08:50 PM
Distance/Time
Traveled:
69nm/0:49
Distance/Time
To Go:
Arrived

Flight Plot

Page will automatically refresh every two minutes.

Flight plan parsing failed; only flown route is shown


Map Options




Map Legend


Flown Route
Filed Route
Departure Airport
Arrival Airport
Navaid (VOR, NDB)
Fix

Horizontal Profiles

Position Reports

Time Latitude Longitude Heading Altitude Ground
Speed
26-Nov-19 19:52 34.210350 -119.076468 90 79ft 0kts
26-Nov-19 19:53 34.210350 -119.076468 90 79ft 0kts
26-Nov-19 19:54 34.210350 -119.076468 90 79ft 0kts
26-Nov-19 19:55 34.210873 -119.076857 270 79ft 4kts
26-Nov-19 19:56 34.210889 -119.079113 271 78ft 7kts
26-Nov-19 19:57 34.210922 -119.083001 271 76ft 11kts
26-Nov-19 19:58 34.212640 -119.084624 358 75ft 3kts
26-Nov-19 19:59 34.212657 -119.084624 1 75ft 0kts
26-Nov-19 20:00 34.213007 -119.084613 1 76ft 6kts
26-Nov-19 20:01 34.213910 -119.094588 270 338ft 74kts
26-Nov-19 20:02 34.223069 -119.101938 86 1401ft 93kts
26-Nov-19 20:03 34.221446 -119.072198 102 2531ft 87kts
26-Nov-19 20:04 34.217270 -119.042867 102 3488ft 95kts
26-Nov-19 20:05 34.212862 -119.010234 101 4386ft 102kts
26-Nov-19 20:06 34.208153 -118.976094 101 5280ft 104kts
26-Nov-19 20:07 34.202144 -118.935498 101 5525ft 144kts
26-Nov-19 20:08 34.196233 -118.888732 98 5530ft 148kts
26-Nov-19 20:09 34.190831 -118.843656 98 5534ft 149kts
26-Nov-19 20:10 34.185694 -118.798804 96 5472ft 151kts
26-Nov-19 20:11 34.181060 -118.756484 96 5397ft 143kts
26-Nov-19 20:11 34.177403 -118.726018 88 5526ft 131kts
26-Nov-19 20:13 34.174733 -118.682680 88 5517ft 135kts
26-Nov-19 20:13 34.173124 -118.653095 88 5521ft 134kts
26-Nov-19 20:14 34.171510 -118.621294 88 5511ft 110kts
26-Nov-19 20:16 34.169983 -118.591547 88 5495ft 88kts
26-Nov-19 20:16 34.169146 -118.573223 88 5542ft 82kts
26-Nov-19 20:17 34.166418 -118.551372 126 5516ft 83kts
26-Nov-19 20:18 34.148761 -118.537360 157 5524ft 80kts
26-Nov-19 20:19 34.123025 -118.523034 166 5537ft 130kts
26-Nov-19 20:20 34.089252 -118.508966 166 5520ft 136kts
26-Nov-19 20:21 34.057624 -118.494418 162 5518ft 135kts
26-Nov-19 20:22 34.027273 -118.477295 161 5526ft 136kts
26-Nov-19 20:23 33.995490 -118.460419 167 5535ft 135kts
26-Nov-19 20:24 33.960244 -118.447883 162 5546ft 138kts
26-Nov-19 20:25 33.927966 -118.429010 148 5557ft 143kts
26-Nov-19 20:26 33.902557 -118.401455 142 5571ft 144kts
26-Nov-19 20:27 33.877110 -118.372328 140 5540ft 146kts
26-Nov-19 20:28 33.851346 -118.342362 141 5513ft 144kts
26-Nov-19 20:29 33.824508 -118.310928 141 5506ft 143kts
26-Nov-19 20:30 33.795391 -118.278333 143 5499ft 142kts
26-Nov-19 20:31 33.765124 -118.246081 144 5493ft 142kts
26-Nov-19 20:32 33.736404 -118.210105 116 5485ft 147kts
26-Nov-19 20:33 33.721125 -118.171747 141 5265ft 112kts
26-Nov-19 20:34 33.699730 -118.142660 94 4623ft 115kts
26-Nov-19 20:35 33.701627 -118.110190 83 4113ft 114kts
26-Nov-19 20:36 33.703709 -118.079985 94 3629ft 113kts
26-Nov-19 20:37 33.697865 -118.051954 108 3203ft 109kts
26-Nov-19 20:38 33.690532 -118.025202 108 2759ft 109kts
26-Nov-19 20:39 33.685634 -118.000217 102 2397ft 107kts
26-Nov-19 20:40 33.681489 -117.975187 104 2066ft 106kts
26-Nov-19 20:41 33.678602 -117.950297 93 1760ft 105kts
26-Nov-19 20:42 33.676893 -117.925722 96 1689ft 99kts
26-Nov-19 20:43 33.675107 -117.902735 97 1675ft 99kts
26-Nov-19 20:44 33.673788 -117.880372 94 1670ft 99kts
26-Nov-19 20:45 33.674088 -117.857070 51 1493ft 102kts
26-Nov-19 20:46 33.687183 -117.843955 21 1214ft 71kts
26-Nov-19 20:47 33.691668 -117.855784 225 622ft 67kts
26-Nov-19 20:48 33.680108 -117.864206 207 60ft 47kts
26-Nov-19 20:49 33.676913 -117.865670 124 60ft 0kts
26-Nov-19 20:50 33.676000 -117.865261 210 60ft 8kts

Navigation Log

Ident Type
Flight plan parsing failed, navigation log unavailable